createdAt,value
2023-10-20T00:03:19.877Z,3.10
2023-10-20T00:18:11.725Z,2.68
2023-10-20T00:33:04.810Z,3.20
2023-10-20T00:47:57.802Z,2.63
2023-10-20T01:02:50.507Z,2.84
2023-10-20T01:17:43.335Z,3.34
2023-10-20T01:32:35.297Z,3.90
2023-10-20T01:47:27.148Z,3.53
2023-10-20T02:02:19.431Z,3.72
2023-10-20T02:17:13.229Z,3.97
2023-10-20T02:32:06.916Z,3.77
2023-10-20T02:46:59.860Z,3.37
2023-10-20T03:01:53.826Z,3.20
2023-10-20T03:16:46.711Z,3.04
2023-10-20T03:31:38.760Z,2.76
2023-10-20T03:46:31.129Z,3.00
2023-10-20T04:01:23.619Z,3.10
2023-10-20T04:16:17.673Z,2.71
2023-10-20T04:31:28.972Z,2.82
2023-10-20T04:46:32.363Z,2.78
2023-10-20T05:01:29.668Z,3.62
2023-10-20T05:16:21.569Z,3.93
2023-10-20T05:31:14.135Z,3.83
2023-10-20T07:45:10.167Z,3.88
2023-10-20T08:00:05.788Z,3.27
2023-10-20T09:14:29.701Z,5.18
2023-10-20T09:29:22.289Z,3.71
2023-10-20T09:44:16.036Z,3.27
2023-10-20T09:59:08.730Z,2.98
2023-10-20T10:14:00.640Z,3.20
2023-10-20T10:28:51.952Z,3.46
2023-10-20T10:43:44.306Z,3.36
2023-10-20T10:58:39.058Z,2.90
2023-10-20T11:13:32.228Z,1.88
2023-10-20T11:28:25.383Z,1.01
2023-10-20T11:43:19.144Z,0.70
2023-10-20T11:58:10.675Z,0.71
2023-10-20T12:13:05.678Z,0.80
2023-10-20T12:28:01.748Z,0.59
2023-10-20T12:42:54.010Z,0.63
2023-10-20T12:57:47.563Z,0.66
2023-10-20T13:12:40.292Z,0.60
2023-10-20T13:27:32.829Z,0.40
2023-10-20T13:42:25.566Z,0.83
2023-10-20T13:57:19.135Z,0.59
2023-10-20T14:12:13.488Z,0.70
2023-10-20T15:11:56.806Z,0.80
2023-10-20T15:56:33.550Z,0.38
2023-10-20T16:26:19.607Z,0.60
2023-10-20T16:56:03.447Z,1.00
2023-10-20T17:10:55.970Z,0.96
2023-10-20T17:25:48.374Z,0.90
2023-10-20T17:40:40.049Z,1.31
2023-10-20T17:55:31.551Z,1.14
2023-10-20T18:10:23.670Z,1.34
2023-10-20T18:25:15.408Z,1.84
2023-10-20T18:40:07.914Z,1.76
2023-10-20T19:10:08.543Z,1.08
2023-10-20T19:25:00.690Z,2.16
2023-10-20T19:54:59.485Z,1.16
2023-10-20T20:09:52.214Z,0.90
2023-10-20T20:24:45.008Z,0.80
2023-10-20T22:09:12.427Z,0.96
2023-10-20T22:24:06.525Z,0.70
2023-10-20T22:39:01.133Z,0.60
2023-10-20T22:53:54.464Z,0.50
2023-10-20T23:08:48.649Z,0.30
2023-10-20T23:23:41.548Z,0.29
2023-10-20T23:38:33.876Z,0.40
2023-10-20T23:53:26.410Z,0.41
